createdAt,value
2018-01-06T00:01:58.058Z,99664
2018-01-06T00:04:28.086Z,99665
2018-01-06T00:06:57.359Z,99660
2018-01-06T00:09:26.725Z,99658
2018-01-06T00:11:57.082Z,99654
2018-01-06T00:14:26.320Z,99653
2018-01-06T00:16:55.735Z,99655
2018-01-06T00:19:24.903Z,99654
2018-01-06T00:21:54.168Z,99656
2018-01-06T00:24:23.295Z,99659
2018-01-06T00:26:52.525Z,99661
2018-01-06T00:29:22.463Z,99663
2018-01-06T00:31:52.355Z,99666
2018-01-06T00:34:23.008Z,99665
2018-01-06T00:36:52.125Z,99663
2018-01-06T00:39:21.241Z,99669
2018-01-06T00:41:50.470Z,99669
2018-01-06T00:44:20.330Z,99673
2018-01-06T00:46:49.426Z,99671
2018-01-06T00:49:19.424Z,99671
2018-01-06T00:51:48.557Z,99668
2018-01-06T00:54:18.167Z,99672
2018-01-06T00:56:48.797Z,99673
2018-01-06T00:59:17.920Z,99678
2018-01-06T01:01:47.837Z,99672
2018-01-06T01:04:18.562Z,99676
2018-01-06T01:06:47.673Z,99680
2018-01-06T01:09:17.797Z,99685
2018-01-06T01:11:47.178Z,99684
2018-01-06T01:14:16.303Z,99688
2018-01-06T01:16:45.405Z,99687
2018-01-06T01:19:14.543Z,99697
2018-01-06T01:21:43.649Z,99697
2018-01-06T01:24:12.755Z,99702
2018-01-06T01:26:41.917Z,99706
2018-01-06T01:29:11.803Z,99718
2018-01-06T01:31:41.818Z,99719
2018-01-06T01:34:10.954Z,99719
2018-01-06T01:36:40.833Z,99728
2018-01-06T01:39:09.931Z,99726
2018-01-06T01:41:39.085Z,99725
2018-01-06T01:44:08.178Z,99729
2018-01-06T01:46:37.349Z,99732
2018-01-06T01:49:06.498Z,99739
2018-01-06T01:51:35.631Z,99738
2018-01-06T01:54:04.773Z,99741
2018-01-06T01:56:34.727Z,99733
2018-01-06T01:59:03.970Z,99737
2018-01-06T02:01:33.178Z,99739
2018-01-06T02:04:03.050Z,99738
2018-01-06T02:06:32.189Z,99734
2018-01-06T02:09:01.447Z,99726
2018-01-06T02:11:32.080Z,99736
2018-01-06T02:14:01.201Z,99745
2018-01-06T02:16:31.210Z,99757
2018-01-06T02:19:00.851Z,99761
2018-01-06T02:21:29.961Z,99759
2018-01-06T02:24:00.018Z,99762
2018-01-06T02:26:31.005Z,99756
2018-01-06T02:29:00.301Z,99757
2018-01-06T02:31:29.534Z,99758
2018-01-06T02:33:59.432Z,99759
2018-01-06T02:36:28.679Z,99756
2018-01-06T02:38:57.896Z,99751
2018-01-06T02:41:27.228Z,99756
2018-01-06T02:43:56.424Z,99761
2018-01-06T02:46:25.617Z,99760
2018-01-06T02:48:54.851Z,99765
2018-01-06T02:51:24.864Z,99769
2018-01-06T02:53:54.035Z,99767
2018-01-06T02:56:23.259Z,99764
2018-01-06T02:58:52.460Z,99765
2018-01-06T03:01:21.583Z,99759
2018-01-06T03:03:51.290Z,99756
2018-01-06T03:06:20.453Z,99754
2018-01-06T03:08:49.582Z,99753
2018-01-06T03:11:20.423Z,99753
2018-01-06T03:13:49.513Z,99751
2018-01-06T03:16:18.613Z,99757
2018-01-06T03:18:49.182Z,99749
2018-01-06T03:21:18.305Z,99752
2018-01-06T03:23:48.225Z,99753
2018-01-06T03:26:17.363Z,99755
2018-01-06T03:28:46.472Z,99759
2018-01-06T03:31:15.576Z,99758
2018-01-06T03:33:44.727Z,99759
2018-01-06T03:36:13.817Z,99755
2018-01-06T03:38:42.928Z,99756
2018-01-06T03:41:13.532Z,99757
2018-01-06T03:43:43.431Z,99759
2018-01-06T03:46:12.557Z,99770
2018-01-06T03:48:43.040Z,99771
2018-01-06T03:51:12.152Z,99773
2018-01-06T03:53:41.260Z,99773
2018-01-06T03:56:10.431Z,99777
2018-01-06T03:58:40.295Z,99770
2018-01-06T04:01:09.390Z,99771
2018-01-06T04:03:39.301Z,99771
2018-01-06T04:06:08.418Z,99772
2018-01-06T04:08:37.551Z,99769
2018-01-06T04:11:07.039Z,99771
2018-01-06T04:13:36.151Z,99775
2018-01-06T04:16:06.074Z,99771
2018-01-06T04:18:36.752Z,99771
2018-01-06T04:21:05.877Z,99768
2018-01-06T04:23:35.030Z,99769
2018-01-06T04:26:05.047Z,99766
2018-01-06T04:28:34.246Z,99770
2018-01-06T04:31:03.543Z,99780
2018-01-06T04:33:32.957Z,99781
2018-01-06T04:36:02.100Z,99790
2018-01-06T04:38:32.065Z,99799
2018-01-06T04:41:01.691Z,99800
2018-01-06T04:43:30.984Z,99811
2018-01-06T04:46:00.191Z,99809
2018-01-06T04:48:29.478Z,99802
2018-01-06T04:50:58.628Z,99804
2018-01-06T04:53:27.759Z,99812
2018-01-06T04:55:58.073Z,99820
2018-01-06T04:58:27.691Z,99825
2018-01-06T05:00:56.802Z,99818
2018-01-06T05:03:26.007Z,99822
2018-01-06T05:05:55.338Z,99828
2018-01-06T05:08:25.459Z,99835
2018-01-06T05:10:54.684Z,99834
2018-01-06T05:13:25.291Z,99840
2018-01-06T05:16:00.446Z,99845
2018-01-06T05:18:29.594Z,99844
2018-01-06T05:21:01.805Z,99854
2018-01-06T05:23:30.910Z,99849
2018-01-06T05:26:00.088Z,99850
2018-01-06T05:28:30.142Z,99848
2018-01-06T05:30:59.257Z,99857
2018-01-06T05:33:29.166Z,99858
2018-01-06T05:35:58.474Z,99864
2018-01-06T05:38:27.707Z,99872
2018-01-06T05:40:56.930Z,99876
2018-01-06T05:43:27.202Z,99880
2018-01-06T05:45:57.198Z,99877
2018-01-06T05:48:26.514Z,99882
2018-01-06T05:50:56.484Z,99876
2018-01-06T05:53:25.952Z,99889
2018-01-06T05:55:55.115Z,99889
2018-01-06T05:58:24.716Z,99891
2018-01-06T06:00:53.882Z,99890
2018-01-06T06:03:22.987Z,99888
2018-01-06T06:05:53.422Z,99896
2018-01-06T06:08:22.540Z,99897
2018-01-06T06:10:51.666Z,99904
2018-01-06T06:13:20.807Z,99907
2018-01-06T06:15:49.928Z,99915
2018-01-06T06:18:19.080Z,99917
2018-01-06T06:20:48.287Z,99916
2018-01-06T06:23:17.441Z,99913
2018-01-06T06:25:46.569Z,99913
2018-01-06T06:28:17.254Z,99914
2018-01-06T06:30:46.425Z,99909
2018-01-06T06:33:16.311Z,99922
2018-01-06T06:35:45.964Z,99924
2018-01-06T06:38:15.853Z,99927
2018-01-06T06:40:44.983Z,99927
2018-01-06T06:43:14.514Z,99931
2018-01-06T06:45:43.625Z,99929
2018-01-06T06:48:12.762Z,99936
2018-01-06T06:50:43.329Z,99930
2018-01-06T06:53:12.428Z,99929
2018-01-06T06:55:41.586Z,99934
2018-01-06T06:58:10.773Z,99947
2018-01-06T07:00:39.879Z,99945
2018-01-06T07:03:09.065Z,99947
2018-01-06T07:05:39.133Z,99948
2018-01-06T07:08:08.294Z,99950
2018-01-06T07:10:38.202Z,99959
2018-01-06T07:13:07.358Z,99956
2018-01-06T07:15:36.523Z,99962
2018-01-06T07:18:06.431Z,99974
2018-01-06T07:20:35.696Z,99973
2018-01-06T07:23:04.826Z,99975
2018-01-06T07:25:33.960Z,99982
2018-01-06T07:28:03.267Z,99986
2018-01-06T07:30:32.486Z,99988
2018-01-06T07:33:01.654Z,99996
2018-01-06T07:35:31.141Z,99998
2018-01-06T07:38:01.091Z,100002
2018-01-06T07:40:30.300Z,100002
2018-01-06T07:42:59.511Z,100001
2018-01-06T07:45:28.667Z,100008
2018-01-06T07:47:57.866Z,100008
2018-01-06T07:50:27.012Z,100005
2018-01-06T07:52:56.928Z,100011
2018-01-06T07:55:26.129Z,100012
2018-01-06T07:57:55.413Z,100017
2018-01-06T08:00:24.604Z,100028
2018-01-06T08:02:53.750Z,100036
2018-01-06T08:05:22.933Z,100053
2018-01-06T08:07:52.081Z,100051
2018-01-06T08:10:21.226Z,100059
2018-01-06T08:12:51.332Z,100066
2018-01-06T08:15:21.758Z,100075
2018-01-06T08:17:51.686Z,100072
2018-01-06T08:20:20.879Z,100080
2018-01-06T08:22:50.026Z,100079
2018-01-06T08:25:19.137Z,100101
2018-01-06T08:27:48.578Z,100096
2018-01-06T08:30:17.723Z,100101
2018-01-06T08:32:46.889Z,100106
2018-01-06T08:35:17.326Z,100100
2018-01-06T08:37:47.193Z,100121
2018-01-06T08:40:16.333Z,100141
2018-01-06T08:42:45.580Z,100136
2018-01-06T08:45:15.453Z,100147
2018-01-06T08:47:44.554Z,100160
2018-01-06T08:50:14.397Z,100164
2018-01-06T08:52:44.257Z,100174
2018-01-06T08:55:13.420Z,100183
2018-01-06T08:57:42.657Z,100189
2018-01-06T09:00:11.790Z,100192
2018-01-06T09:02:41.679Z,100194
2018-01-06T09:05:10.913Z,100201
2018-01-06T09:07:40.250Z,100205
2018-01-06T09:10:09.366Z,100209
2018-01-06T09:12:39.355Z,100219
2018-01-06T09:15:08.459Z,100227
2018-01-06T09:17:37.547Z,100224
2018-01-06T09:20:06.695Z,100234
2018-01-06T09:22:35.831Z,100235
2018-01-06T09:25:05.750Z,100246
2018-01-06T09:27:37.519Z,100251
2018-01-06T09:30:07.375Z,100259
2018-01-06T09:32:36.494Z,100264
2018-01-06T09:35:05.649Z,100273
2018-01-06T09:37:34.770Z,100281
2018-01-06T09:40:03.905Z,100289
2018-01-06T09:42:33.062Z,100294
2018-01-06T09:45:03.140Z,100306
2018-01-06T09:47:32.299Z,100306
2018-01-06T09:50:01.582Z,100318
2018-01-06T09:52:30.718Z,100320
2018-01-06T09:54:59.910Z,100325
2018-01-06T09:57:29.080Z,100327
2018-01-06T09:59:58.943Z,100335
2018-01-06T10:02:28.994Z,100338
2018-01-06T10:04:59.255Z,100338
2018-01-06T10:07:29.687Z,100343
2018-01-06T10:09:58.876Z,100348
2018-01-06T10:12:28.055Z,100359
2018-01-06T10:14:58.015Z,100351
2018-01-06T10:17:27.273Z,100369
2018-01-06T10:19:57.420Z,100380
2018-01-06T10:22:26.624Z,100380
2018-01-06T10:24:56.917Z,100385
2018-01-06T10:27:26.909Z,100386
2018-01-06T10:29:56.171Z,100385
2018-01-06T10:32:26.202Z,100393
2018-01-06T10:34:55.757Z,100398
2018-01-06T10:37:24.937Z,100412
2018-01-06T10:39:54.399Z,100417
2018-01-06T10:42:23.593Z,100419
2018-01-06T10:44:53.702Z,100426
2018-01-06T10:47:22.822Z,100435
2018-01-06T10:49:51.996Z,100444
2018-01-06T10:52:21.879Z,100451
2018-01-06T10:54:51.049Z,100450
2018-01-06T10:57:20.936Z,100448
2018-01-06T10:59:50.052Z,100442
2018-01-06T11:02:19.129Z,100447
2018-01-06T11:04:49.880Z,100443
2018-01-06T11:07:19.039Z,100441
2018-01-06T11:09:49.078Z,100445
2018-01-06T11:12:18.971Z,100459
2018-01-06T11:14:48.378Z,100461
2018-01-06T11:17:17.468Z,100463
2018-01-06T11:19:46.628Z,100459
2018-01-06T11:22:16.483Z,100474
2018-01-06T11:24:45.621Z,100478
2018-01-06T11:27:14.849Z,100487
2018-01-06T11:29:43.961Z,100489
2018-01-06T11:32:13.081Z,100490
2018-01-06T11:34:43.471Z,100489
2018-01-06T11:37:12.609Z,100498
2018-01-06T11:39:41.745Z,100497
2018-01-06T11:42:11.053Z,100494
2018-01-06T11:44:40.175Z,100498
2018-01-06T11:47:10.140Z,100506
2018-01-06T11:49:39.273Z,100511
2018-01-06T11:52:08.381Z,100513
2018-01-06T11:54:37.547Z,100520
2018-01-06T11:57:06.774Z,100527
2018-01-06T11:59:35.933Z,100533
2018-01-06T12:02:05.415Z,100532
2018-01-06T12:04:34.944Z,100539
2018-01-06T12:07:04.061Z,100540
2018-01-06T12:09:33.156Z,100538
2018-01-06T12:12:02.314Z,100550
2018-01-06T12:14:32.187Z,100561
2018-01-06T12:17:01.291Z,100566
2018-01-06T12:19:30.508Z,100574
2018-01-06T12:21:59.675Z,100578
2018-01-06T12:24:28.857Z,100573
2018-01-06T12:26:58.951Z,100575
2018-01-06T12:29:28.152Z,100579
2018-01-06T12:31:57.350Z,100582
2018-01-06T12:34:27.747Z,100599
2018-01-06T12:36:56.891Z,100602
2018-01-06T12:39:26.005Z,100609
2018-01-06T12:41:55.192Z,100607
2018-01-06T12:44:25.078Z,100610
2018-01-06T12:46:54.278Z,100611
2018-01-06T12:49:23.533Z,100621
2018-01-06T12:51:54.391Z,100620
2018-01-06T12:54:25.022Z,100628
2018-01-06T12:56:54.172Z,100634
2018-01-06T12:59:23.287Z,100634
2018-01-06T13:01:52.436Z,100642
2018-01-06T13:04:21.537Z,100645
2018-01-06T13:06:50.645Z,100647
2018-01-06T13:09:19.977Z,100653
2018-01-06T13:11:49.318Z,100664
2018-01-06T13:14:19.217Z,100674
2018-01-06T13:16:48.670Z,100684
2018-01-06T13:19:17.792Z,100688
2018-01-06T13:21:48.232Z,100699
2018-01-06T13:24:17.386Z,100704
2018-01-06T13:26:46.482Z,100706
2018-01-06T13:29:15.593Z,100714
2018-01-06T13:31:44.809Z,100724
2018-01-06T13:34:13.947Z,100731
2018-01-06T13:36:43.061Z,100740
2018-01-06T13:39:14.184Z,100743
2018-01-06T13:41:43.288Z,100752
2018-01-06T13:44:13.190Z,100758
2018-01-06T13:46:42.668Z,100762
2018-01-06T13:49:11.803Z,100774
2018-01-06T13:51:40.941Z,100774
2018-01-06T13:54:10.302Z,100781
2018-01-06T13:56:40.181Z,100794
2018-01-06T13:59:09.328Z,100794
2018-01-06T14:01:38.833Z,100801
2018-01-06T14:04:07.951Z,100807
2018-01-06T14:06:37.067Z,100821
2018-01-06T14:09:07.062Z,100822
2018-01-06T14:11:36.165Z,100826
2018-01-06T14:14:05.256Z,100835
2018-01-06T14:16:34.426Z,100845
2018-01-06T14:19:03.594Z,100850
2018-01-06T14:21:33.114Z,100853
2018-01-06T14:24:02.330Z,100861
2018-01-06T14:26:31.506Z,100867
2018-01-06T14:29:00.729Z,100874
2018-01-06T14:31:30.311Z,100887
2018-01-06T14:34:00.268Z,100889
2018-01-06T14:36:29.439Z,100898
2018-01-06T14:39:00.080Z,100901
2018-01-06T14:41:29.277Z,100914
2018-01-06T14:43:59.310Z,100913
2018-01-06T14:46:28.668Z,100914
2018-01-06T14:48:57.816Z,100921
2018-01-06T14:51:26.985Z,100920
2018-01-06T14:53:57.033Z,100916
2018-01-06T14:56:26.177Z,100929
2018-01-06T14:58:56.161Z,100926
2018-01-06T15:01:25.345Z,100932
2018-01-06T15:03:55.365Z,100941
2018-01-06T15:06:26.305Z,100946
2018-01-06T15:08:55.500Z,100943
2018-01-06T15:11:24.700Z,100952
2018-01-06T15:13:54.830Z,100958
2018-01-06T15:16:24.110Z,100955
2018-01-06T15:18:54.025Z,100964
2018-01-06T15:21:24.497Z,100967
2018-01-06T15:23:53.697Z,100979
2018-01-06T15:26:22.912Z,100984
2018-01-06T15:28:52.039Z,100998
2018-01-06T15:31:21.133Z,101000
2018-01-06T15:33:50.325Z,101001
2018-01-06T15:36:19.466Z,101000
2018-01-06T15:38:49.559Z,101007
2018-01-06T15:41:20.462Z,101014
2018-01-06T15:43:49.570Z,101015
2018-01-06T15:46:18.712Z,101024
2018-01-06T15:48:48.240Z,101024
2018-01-06T15:51:18.150Z,101029
2018-01-06T15:53:47.257Z,101036
2018-01-06T15:56:16.860Z,101041
2018-01-06T15:58:46.430Z,101048
2018-01-06T16:01:15.598Z,101052
2018-01-06T16:03:45.499Z,101055
2018-01-06T16:06:14.598Z,101064
2018-01-06T16:08:43.716Z,101070
2018-01-06T16:11:12.853Z,101074
2018-01-06T16:13:41.980Z,101075
2018-01-06T16:16:11.134Z,101080
2018-01-06T16:18:41.225Z,101086
2018-01-06T16:21:10.367Z,101092
2018-01-06T16:23:39.492Z,101095
2018-01-06T16:26:08.842Z,101100
2018-01-06T16:28:37.966Z,101100
2018-01-06T16:31:07.126Z,101112
2018-01-06T16:33:36.263Z,101111
2018-01-06T16:36:05.376Z,101109
2018-01-06T16:38:34.551Z,101111
2018-01-06T16:41:04.126Z,101117
2018-01-06T16:43:33.996Z,101120
2018-01-06T16:46:03.108Z,101119
2018-01-06T16:48:32.287Z,101129
2018-01-06T16:51:02.206Z,101131
2018-01-06T16:53:31.417Z,101138
2018-01-06T16:56:00.622Z,101145
2018-01-06T16:58:29.724Z,101148
2018-01-06T17:00:59.346Z,101153
2018-01-06T17:03:28.642Z,101158
2018-01-06T17:05:57.793Z,101169
2018-01-06T17:08:27.803Z,101172
2018-01-06T17:10:57.017Z,101178
2018-01-06T17:13:26.222Z,101179
2018-01-06T17:15:56.151Z,101181
2018-01-06T17:18:26.394Z,101189
2018-01-06T17:20:56.263Z,101205
2018-01-06T17:23:25.566Z,101201
2018-01-06T17:25:54.989Z,101204
2018-01-06T17:28:24.388Z,101206
2018-01-06T17:30:53.685Z,101209
2018-01-06T17:33:23.169Z,101216
2018-01-06T17:35:52.446Z,101215
2018-01-06T17:38:21.592Z,101219
2018-01-06T17:40:51.921Z,101228
2018-01-06T17:43:21.807Z,101236
2018-01-06T17:45:50.989Z,101241
2018-01-06T17:48:20.269Z,101239
2018-01-06T17:50:49.478Z,101247
2018-01-06T17:53:18.767Z,101250
2018-01-06T17:55:49.129Z,101264
2018-01-06T17:58:18.428Z,101267
2018-01-06T18:00:47.820Z,101275
2018-01-06T18:03:17.717Z,101277
2018-01-06T18:05:47.407Z,101278
2018-01-06T18:08:16.551Z,101289
2018-01-06T18:10:46.494Z,101290
2018-01-06T18:13:16.399Z,101293
2018-01-06T18:15:45.600Z,101298
2018-01-06T18:18:15.576Z,101304
2018-01-06T18:20:44.720Z,101308
2018-01-06T18:23:13.814Z,101310
2018-01-06T18:25:43.242Z,101322
2018-01-06T18:28:12.363Z,101327
2018-01-06T18:30:41.566Z,101344
2018-01-06T18:33:10.756Z,101351
2018-01-06T18:35:40.622Z,101361
2018-01-06T18:38:09.751Z,101365
2018-01-06T18:40:39.301Z,101373
2018-01-06T18:43:08.432Z,101377
2018-01-06T18:45:37.588Z,101390
2018-01-06T18:48:06.759Z,101391
2018-01-06T18:50:35.882Z,101393
2018-01-06T18:53:05.097Z,101396
2018-01-06T18:55:34.262Z,101400
2018-01-06T18:58:03.880Z,101408
2018-01-06T19:00:33.179Z,101413
2018-01-06T19:03:02.893Z,101417
2018-01-06T19:05:32.847Z,101432
2018-01-06T19:08:02.064Z,101435
2018-01-06T19:10:31.365Z,101439
2018-01-06T19:13:01.289Z,101444
2018-01-06T19:15:30.602Z,101454
2018-01-06T19:18:00.441Z,101474
2018-01-06T19:20:29.609Z,101481
2018-01-06T19:22:59.538Z,101490
2018-01-06T19:25:28.838Z,101504
2018-01-06T19:27:58.235Z,101508
2018-01-06T19:30:28.346Z,101512
2018-01-06T19:32:58.317Z,101524
2018-01-06T19:35:27.709Z,101530
2018-01-06T19:37:56.869Z,101541
2018-01-06T19:40:27.185Z,101546
2018-01-06T19:42:57.214Z,101548
2018-01-06T19:45:27.626Z,101554
2018-01-06T19:47:57.040Z,101560
2018-01-06T19:50:26.455Z,101565
2018-01-06T19:52:57.469Z,101565
2018-01-06T19:55:26.645Z,101571
2018-01-06T19:57:55.868Z,101574
2018-01-06T20:00:26.166Z,101582
2018-01-06T20:02:55.496Z,101587
2018-01-06T20:05:24.643Z,101593
2018-01-06T20:07:54.687Z,101607
2018-01-06T20:10:23.912Z,101612
2018-01-06T20:12:53.616Z,101609
2018-01-06T20:15:22.919Z,101612
2018-01-06T20:17:53.294Z,101619
2018-01-06T20:20:22.444Z,101613
2018-01-06T20:22:52.365Z,101622
2018-01-06T20:25:22.277Z,101626
2018-01-06T20:27:51.494Z,101637
2018-01-06T20:30:22.143Z,101642
2018-01-06T20:32:51.253Z,101657
2018-01-06T20:35:20.426Z,101657
2018-01-06T20:37:49.676Z,101668
2018-01-06T20:40:18.797Z,101670
2018-01-06T20:42:48.230Z,101677
2018-01-06T20:45:18.822Z,101684
2018-01-06T20:47:47.974Z,101680
2018-01-06T20:50:17.103Z,101692
2018-01-06T20:52:47.021Z,101692
2018-01-06T20:55:16.906Z,101709
2018-01-06T20:57:46.083Z,101704
2018-01-06T21:00:15.241Z,101711
2018-01-06T21:02:44.390Z,101708
2018-01-06T21:05:13.506Z,101707
2018-01-06T21:07:42.654Z,101715
2018-01-06T21:10:11.800Z,101723
2018-01-06T21:12:41.706Z,101720
2018-01-06T21:15:10.885Z,101729
2018-01-06T21:17:40.336Z,101734
2018-01-06T21:20:09.454Z,101738
2018-01-06T21:22:38.702Z,101747
2018-01-06T21:25:07.829Z,101756
2018-01-06T21:27:36.937Z,101761
2018-01-06T21:30:06.851Z,101773
2018-01-06T21:32:36.066Z,101773
2018-01-06T21:35:05.237Z,101783
2018-01-06T21:37:34.493Z,101784
2018-01-06T21:40:03.681Z,101782
2018-01-06T21:42:32.791Z,101792
2018-01-06T21:45:02.437Z,101794
2018-01-06T21:47:31.564Z,101798
2018-01-06T21:50:00.759Z,101801
2018-01-06T21:52:31.396Z,101805
2018-01-06T21:55:00.635Z,101809
2018-01-06T21:57:29.894Z,101811
2018-01-06T21:59:59.837Z,101816
2018-01-06T22:02:29.370Z,101815
2018-01-06T22:04:58.598Z,101827
2018-01-06T22:07:28.554Z,101827
2018-01-06T22:09:57.898Z,101838
2018-01-06T22:12:28.072Z,101838
2018-01-06T22:14:57.351Z,101841
2018-01-06T22:17:26.623Z,101852
2018-01-06T22:19:55.782Z,101857
2018-01-06T22:22:25.902Z,101855
2018-01-06T22:24:55.117Z,101868
2018-01-06T22:27:25.010Z,101875
2018-01-06T22:29:54.326Z,101872
2018-01-06T22:32:24.254Z,101874
2018-01-06T22:34:54.566Z,101880
2018-01-06T22:37:23.825Z,101880
2018-01-06T22:39:52.941Z,101890
2018-01-06T22:42:22.060Z,101892
2018-01-06T22:44:51.232Z,101892
2018-01-06T22:47:20.351Z,101903
2018-01-06T22:49:50.318Z,101906
2018-01-06T22:52:19.449Z,101910
2018-01-06T22:54:48.582Z,101913
2018-01-06T22:57:17.714Z,101923
2018-01-06T22:59:47.800Z,101923
2018-01-06T23:02:16.973Z,101927
2018-01-06T23:04:46.118Z,101928
2018-01-06T23:07:15.888Z,101932
2018-01-06T23:09:45.771Z,101933
2018-01-06T23:12:14.969Z,101938
2018-01-06T23:14:44.165Z,101935
2018-01-06T23:17:14.668Z,101947
2018-01-06T23:19:44.574Z,101951
2018-01-06T23:22:13.762Z,101950
2018-01-06T23:24:42.937Z,101956
2018-01-06T23:27:12.124Z,101966
2018-01-06T23:29:42.493Z,101972
2018-01-06T23:32:11.681Z,101970
2018-01-06T23:34:41.678Z,101977
2018-01-06T23:37:10.979Z,101982
2018-01-06T23:39:41.363Z,101989
2018-01-06T23:42:10.640Z,101988
2018-01-06T23:44:40.170Z,101995
2018-01-06T23:47:09.296Z,101996
2018-01-06T23:49:38.411Z,102012
2018-01-06T23:52:07.658Z,102010
2018-01-06T23:54:36.778Z,102021
2018-01-06T23:57:05.908Z,102024
2018-01-06T23:59:35.141Z,102028
